To NAV CANADA Home Page Login to a new session Search on AWWS site Feedback and Comments Disclaimer Vers la page française équivalente Tips FAQ What's new on the site To the Forecasts and Observations / NOTAM section To "File a Flight Plan" website Publications and other links Update of the User's profile FIC Telephone Numbers My Weather Data Folder Route Weather Data Regional Weather Data Local Weather Data To the Forecasts and Observations / NOTAM section
Request Generated 07/23/2016 at 19:12:57 UTC . Weather information available at that time is displayed.

METAR/TAF

BAKER LAKE/NU    

METAR CYBK 231900Z 17014KT 20SM FEW045 BKN050 16/09 A2957 RMK CU2SC5
SLP015 DENSITY ALT 500FT=
SPECI CYBK 231836Z 18017KT 20SM VCSH FEW045 BKN050 15/08 A2957 RMK
CU1SC6 SLP016 DENSITY ALT 500FT=
SPECI CYBK 231809Z 19013KT 20SM -RA FEW050 OVC063 15/08 A2957 RMK
CU1SC7 SLP016 DENSITY ALT 500FT=
METAR CYBK 231800Z 18014KT 20SM FEW050 OVC063 15/08 A2957 RMK CU1SC7
SLP017 DENSITY ALT 500FT=
METAR CYBK 231700Z 18018KT 20SM FEW050 BKN080 16/07 A2957 RMK CU1AC6
SLP016 DENSITY ALT 600FT=

TAF CYBK 231738Z 2318/2406 22010KT P6SM SCT050 BKN080
FM232200 22010KT P6SM FEW080 SCT120
BECMG 2322/2324 27012KT
RMK NXT FCST BY 240000Z=
Your time UTC time
Weather data provided by Environment Canada and NAV CANADA